sensor_id;sensor_type;location;lat;lon;timestamp;P1;durP1;ratioP1;P2;durP2;ratioP2
55465;SDS011;41329;41.594;23.810;2022-12-18T00:01:27;10.53;;;9.73;;
55465;SDS011;41329;41.594;23.810;2022-12-18T00:04:02;10.10;;;9.20;;
55465;SDS011;41329;41.594;23.810;2022-12-18T00:06:31;13.60;;;12.23;;
55465;SDS011;41329;41.594;23.810;2022-12-18T00:08:57;7.97;;;7.37;;
55465;SDS011;41329;41.594;23.810;2022-12-18T00:11:26;8.10;;;7.60;;
55465;SDS011;41329;41.594;23.810;2022-12-18T00:13:54;8.03;;;7.37;;
55465;SDS011;41329;41.594;23.810;2022-12-18T00:16:21;6.93;;;6.50;;
55465;SDS011;41329;41.594;23.810;2022-12-18T00:18:49;8.90;;;8.10;;
55465;SDS011;41329;41.594;23.810;2022-12-18T00:21:16;11.90;;;9.47;;
55465;SDS011;41329;41.594;23.810;2022-12-18T00:23:43;10.23;;;9.53;;
55465;SDS011;41329;41.594;23.810;2022-12-18T00:26:11;10.90;;;10.10;;
55465;SDS011;41329;41.594;23.810;2022-12-18T00:28:44;16.90;;;11.53;;
55465;SDS011;41329;41.594;23.810;2022-12-18T00:31:11;14.43;;;12.07;;
55465;SDS011;41329;41.594;23.810;2022-12-18T00:33:39;12.83;;;12.00;;
55465;SDS011;41329;41.594;23.810;2022-12-18T00:36:06;13.50;;;12.17;;
55465;SDS011;41329;41.594;23.810;2022-12-18T00:38:35;13.40;;;12.23;;
55465;SDS011;41329;41.594;23.810;2022-12-18T00:41:01;12.60;;;11.63;;
55465;SDS011;41329;41.594;23.810;2022-12-18T00:43:26;14.23;;;13.13;;
55465;SDS011;41329;41.594;23.810;2022-12-18T00:45:52;15.83;;;14.43;;
55465;SDS011;41329;41.594;23.810;2022-12-18T00:48:17;12.67;;;11.37;;
55465;SDS011;41329;41.594;23.810;2022-12-18T00:50:43;11.50;;;10.73;;
55465;SDS011;41329;41.594;23.810;2022-12-18T00:53:11;12.03;;;11.00;;
55465;SDS011;41329;41.594;23.810;2022-12-18T00:55:37;10.87;;;9.87;;
55465;SDS011;41329;41.594;23.810;2022-12-18T00:58:04;10.57;;;9.70;;
55465;SDS011;41329;41.594;23.810;2022-12-18T01:00:30;11.13;;;10.23;;
55465;SDS011;41329;41.594;23.810;2022-12-18T01:02:55;11.17;;;10.23;;
55465;SDS011;41329;41.594;23.810;2022-12-18T01:05:20;10.97;;;9.97;;
55465;SDS011;41329;41.594;23.810;2022-12-18T01:07:46;10.17;;;9.47;;
55465;SDS011;41329;41.594;23.810;2022-12-18T01:10:12;9.53;;;8.47;;
55465;SDS011;41329;41.594;23.810;2022-12-18T01:12:38;10.43;;;9.27;;
55465;SDS011;41329;41.594;23.810;2022-12-18T01:15:04;10.37;;;8.87;;
55465;SDS011;41329;41.594;23.810;2022-12-18T01:17:31;8.37;;;7.87;;
55465;SDS011;41329;41.594;23.810;2022-12-18T01:19:57;9.00;;;8.30;;
55465;SDS011;41329;41.594;23.810;2022-12-18T01:22:23;9.20;;;8.60;;
55465;SDS011;41329;41.594;23.810;2022-12-18T01:24:48;9.20;;;8.40;;
55465;SDS011;41329;41.594;23.810;2022-12-18T01:27:14;8.50;;;7.70;;
55465;SDS011;41329;41.594;23.810;2022-12-18T01:29:39;9.33;;;8.17;;
55465;SDS011;41329;41.594;23.810;2022-12-18T01:32:05;8.73;;;7.87;;
55465;SDS011;41329;41.594;23.810;2022-12-18T01:34:30;8.53;;;7.83;;
55465;SDS011;41329;41.594;23.810;2022-12-18T01:36:56;9.60;;;8.30;;
55465;SDS011;41329;41.594;23.810;2022-12-18T01:39:21;8.60;;;7.80;;
55465;SDS011;41329;41.594;23.810;2022-12-18T01:41:47;9.10;;;8.40;;
55465;SDS011;41329;41.594;23.810;2022-12-18T01:49:59;9.50;;;8.87;;
55465;SDS011;41329;41.594;23.810;2022-12-18T01:52:28;10.02;;;9.27;;
55465;SDS011;41329;41.594;23.810;2022-12-18T01:54:55;10.30;;;9.50;;
55465;SDS011;41329;41.594;23.810;2022-12-18T01:57:21;10.33;;;9.37;;
55465;SDS011;41329;41.594;23.810;2022-12-18T01:59:50;8.97;;;8.37;;
55465;SDS011;41329;41.594;23.810;2022-12-18T02:02:19;9.93;;;9.07;;
55465;SDS011;41329;41.594;23.810;2022-12-18T02:04:46;8.33;;;7.73;;
55465;SDS011;41329;41.594;23.810;2022-12-18T02:09:50;9.47;;;8.67;;
55465;SDS011;41329;41.594;23.810;2022-12-18T02:12:37;9.00;;;8.27;;
55465;SDS011;41329;41.594;23.810;2022-12-18T02:15:18;8.90;;;8.30;;
55465;SDS011;41329;41.594;23.810;2022-12-18T02:17:52;10.33;;;9.27;;
55465;SDS011;41329;41.594;23.810;2022-12-18T02:28:41;7.72;;;7.03;;
55465;SDS011;41329;41.594;23.810;2022-12-18T02:31:11;7.40;;;6.27;;
55465;SDS011;41329;41.594;23.810;2022-12-18T02:33:41;8.67;;;6.40;;
55465;SDS011;41329;41.594;23.810;2022-12-18T02:36:09;6.23;;;5.73;;
55465;SDS011;41329;41.594;23.810;2022-12-18T02:38:37;5.97;;;5.47;;
55465;SDS011;41329;41.594;23.810;2022-12-18T02:41:04;6.53;;;5.90;;
55465;SDS011;41329;41.594;23.810;2022-12-18T02:43:31;8.73;;;8.20;;
55465;SDS011;41329;41.594;23.810;2022-12-18T02:45:57;8.43;;;7.80;;
55465;SDS011;41329;41.594;23.810;2022-12-18T02:48:31;8.47;;;7.87;;
55465;SDS011;41329;41.594;23.810;2022-12-18T02:51:14;9.53;;;8.57;;
55465;SDS011;41329;41.594;23.810;2022-12-18T02:53:50;9.20;;;8.32;;
55465;SDS011;41329;41.594;23.810;2022-12-18T02:59:30;8.90;;;8.30;;
55465;SDS011;41329;41.594;23.810;2022-12-18T03:02:05;8.27;;;7.57;;
55465;SDS011;41329;41.594;23.810;2022-12-18T03:04:47;8.73;;;7.97;;
55465;SDS011;41329;41.594;23.810;2022-12-18T03:07:20;9.13;;;8.37;;
55465;SDS011;41329;41.594;23.810;2022-12-18T03:09:50;8.80;;;8.13;;
55465;SDS011;41329;41.594;23.810;2022-12-18T03:12:21;9.30;;;8.50;;
55465;SDS011;41329;41.594;23.810;2022-12-18T03:15:04;8.53;;;7.83;;
55465;SDS011;41329;41.594;23.810;2022-12-18T03:17:32;8.87;;;8.07;;
55465;SDS011;41329;41.594;23.810;2022-12-18T03:20:06;9.43;;;7.63;;
55465;SDS011;41329;41.594;23.810;2022-12-18T03:22:37;8.37;;;7.63;;
55465;SDS011;41329;41.594;23.810;2022-12-18T03:25:04;8.03;;;7.53;;
55465;SDS011;41329;41.594;23.810;2022-12-18T03:27:33;8.93;;;8.27;;
55465;SDS011;41329;41.594;23.810;2022-12-18T03:30:04;9.20;;;8.40;;
55465;SDS011;41329;41.594;23.810;2022-12-18T03:32:36;8.90;;;8.20;;
55465;SDS011;41329;41.594;23.810;2022-12-18T03:35:07;7.90;;;7.40;;
55465;SDS011;41329;41.594;23.810;2022-12-18T03:37:35;8.77;;;8.17;;
55465;SDS011;41329;41.594;23.810;2022-12-18T03:40:01;9.33;;;8.73;;
55465;SDS011;41329;41.594;23.810;2022-12-18T03:42:28;9.63;;;8.80;;
55465;SDS011;41329;41.594;23.810;2022-12-18T03:45:32;10.07;;;9.47;;
55465;SDS011;41329;41.594;23.810;2022-12-18T03:48:16;11.13;;;10.43;;
55465;SDS011;41329;41.594;23.810;2022-12-18T03:51:00;11.27;;;10.43;;
55465;SDS011;41329;41.594;23.810;2022-12-18T03:56:15;8.70;;;7.93;;
55465;SDS011;41329;41.594;23.810;2022-12-18T03:58:42;8.13;;;7.63;;
55465;SDS011;41329;41.594;23.810;2022-12-18T04:01:09;10.13;;;9.33;;
55465;SDS011;41329;41.594;23.810;2022-12-18T04:03:39;8.52;;;7.97;;
55465;SDS011;41329;41.594;23.810;2022-12-18T04:06:07;13.40;;;12.43;;
55465;SDS011;41329;41.594;23.810;2022-12-18T04:08:34;11.80;;;10.90;;
55465;SDS011;41329;41.594;23.810;2022-12-18T04:11:00;10.60;;;9.80;;
55465;SDS011;41329;41.594;23.810;2022-12-18T04:13:36;11.33;;;9.80;;
55465;SDS011;41329;41.594;23.810;2022-12-18T04:16:03;12.13;;;10.70;;
55465;SDS011;41329;41.594;23.810;2022-12-18T04:18:29;11.70;;;10.90;;
55465;SDS011;41329;41.594;23.810;2022-12-18T04:20:55;11.30;;;10.60;;
55465;SDS011;41329;41.594;23.810;2022-12-18T04:23:20;23.73;;;17.43;;
55465;SDS011;41329;41.594;23.810;2022-12-18T04:25:46;21.73;;;19.50;;
55465;SDS011;41329;41.594;23.810;2022-12-18T04:28:12;12.03;;;11.20;;
55465;SDS011;41329;41.594;23.810;2022-12-18T04:30:38;9.10;;;8.23;;
55465;SDS011;41329;41.594;23.810;2022-12-18T04:33:03;9.20;;;8.57;;
55465;SDS011;41329;41.594;23.810;2022-12-18T04:35:29;7.53;;;7.03;;
55465;SDS011;41329;41.594;23.810;2022-12-18T04:37:55;7.67;;;6.90;;
55465;SDS011;41329;41.594;23.810;2022-12-18T04:40:20;7.67;;;6.83;;
55465;SDS011;41329;41.594;23.810;2022-12-18T04:42:46;8.30;;;5.63;;
55465;SDS011;41329;41.594;23.810;2022-12-18T04:45:11;5.30;;;4.80;;
55465;SDS011;41329;41.594;23.810;2022-12-18T04:47:37;5.67;;;5.17;;
55465;SDS011;41329;41.594;23.810;2022-12-18T04:50:02;4.80;;;4.40;;
55465;SDS011;41329;41.594;23.810;2022-12-18T04:52:31;5.00;;;4.70;;
55465;SDS011;41329;41.594;23.810;2022-12-18T04:54:57;5.37;;;4.60;;
55465;SDS011;41329;41.594;23.810;2022-12-18T04:57:22;6.07;;;5.67;;
55465;SDS011;41329;41.594;23.810;2022-12-18T04:59:48;10.60;;;6.27;;
55465;SDS011;41329;41.594;23.810;2022-12-18T05:02:13;5.63;;;5.23;;
55465;SDS011;41329;41.594;23.810;2022-12-18T05:04:38;6.23;;;5.60;;
55465;SDS011;41329;41.594;23.810;2022-12-18T05:07:04;12.60;;;9.90;;
55465;SDS011;41329;41.594;23.810;2022-12-18T05:09:29;11.97;;;10.93;;
55465;SDS011;41329;41.594;23.810;2022-12-18T05:11:55;10.80;;;9.87;;
55465;SDS011;41329;41.594;23.810;2022-12-18T05:14:20;10.80;;;9.80;;
55465;SDS011;41329;41.594;23.810;2022-12-18T05:16:46;11.33;;;10.23;;
55465;SDS011;41329;41.594;23.810;2022-12-18T05:19:11;11.33;;;9.90;;
55465;SDS011;41329;41.594;23.810;2022-12-18T05:21:36;10.53;;;9.73;;
55465;SDS011;41329;41.594;23.810;2022-12-18T05:24:02;8.77;;;7.93;;
55465;SDS011;41329;41.594;23.810;2022-12-18T05:26:28;7.03;;;6.33;;
55465;SDS011;41329;41.594;23.810;2022-12-18T05:28:53;5.37;;;4.97;;
55465;SDS011;41329;41.594;23.810;2022-12-18T05:31:18;6.17;;;5.57;;
55465;SDS011;41329;41.594;23.810;2022-12-18T05:33:44;6.23;;;5.83;;
55465;SDS011;41329;41.594;23.810;2022-12-18T05:36:09;9.43;;;6.80;;
55465;SDS011;41329;41.594;23.810;2022-12-18T05:38:36;6.67;;;6.00;;
55465;SDS011;41329;41.594;23.810;2022-12-18T05:41:03;5.63;;;5.23;;
55465;SDS011;41329;41.594;23.810;2022-12-18T05:43:30;5.80;;;5.30;;
55465;SDS011;41329;41.594;23.810;2022-12-18T05:45:56;5.47;;;5.00;;
55465;SDS011;41329;41.594;23.810;2022-12-18T05:48:22;4.93;;;4.47;;
55465;SDS011;41329;41.594;23.810;2022-12-18T05:50:48;5.10;;;4.67;;
55465;SDS011;41329;41.594;23.810;2022-12-18T05:53:16;5.37;;;4.53;;
55465;SDS011;41329;41.594;23.810;2022-12-18T05:55:43;6.77;;;4.93;;
55465;SDS011;41329;41.594;23.810;2022-12-18T05:58:09;5.50;;;5.07;;
55465;SDS011;41329;41.594;23.810;2022-12-18T06:00:36;8.60;;;5.33;;
55465;SDS011;41329;41.594;23.810;2022-12-18T06:03:09;5.37;;;4.97;;
55465;SDS011;41329;41.594;23.810;2022-12-18T06:05:39;5.45;;;5.05;;
55465;SDS011;41329;41.594;23.810;2022-12-18T06:08:09;4.53;;;3.90;;
55465;SDS011;41329;41.594;23.810;2022-12-18T06:10:35;3.67;;;3.43;;
55465;SDS011;41329;41.594;23.810;2022-12-18T06:13:01;3.90;;;3.60;;
55465;SDS011;41329;41.594;23.810;2022-12-18T06:15:26;4.13;;;3.70;;
55465;SDS011;41329;41.594;23.810;2022-12-18T06:17:52;4.00;;;3.70;;
55465;SDS011;41329;41.594;23.810;2022-12-18T06:20:18;3.70;;;3.17;;
55465;SDS011;41329;41.594;23.810;2022-12-18T06:22:44;3.73;;;3.33;;
55465;SDS011;41329;41.594;23.810;2022-12-18T06:25:12;3.07;;;2.80;;
55465;SDS011;41329;41.594;23.810;2022-12-18T06:27:38;3.57;;;3.07;;
55465;SDS011;41329;41.594;23.810;2022-12-18T06:30:04;3.70;;;2.63;;
55465;SDS011;41329;41.594;23.810;2022-12-18T06:32:30;3.53;;;3.23;;
55465;SDS011;41329;41.594;23.810;2022-12-18T06:34:55;4.13;;;3.03;;
55465;SDS011;41329;41.594;23.810;2022-12-18T06:37:21;5.27;;;2.77;;
55465;SDS011;41329;41.594;23.810;2022-12-18T06:39:51;5.53;;;3.47;;
55465;SDS011;41329;41.594;23.810;2022-12-18T06:42:17;3.83;;;3.27;;
55465;SDS011;41329;41.594;23.810;2022-12-18T06:44:42;3.83;;;3.57;;
55465;SDS011;41329;41.594;23.810;2022-12-18T06:47:07;4.13;;;3.83;;
55465;SDS011;41329;41.594;23.810;2022-12-18T06:49:33;25.20;;;22.87;;
55465;SDS011;41329;41.594;23.810;2022-12-18T06:51:58;26.40;;;20.67;;
55465;SDS011;41329;41.594;23.810;2022-12-18T06:54:24;23.33;;;21.33;;
55465;SDS011;41329;41.594;23.810;2022-12-18T06:56:49;42.00;;;35.43;;
55465;SDS011;41329;41.594;23.810;2022-12-18T06:59:14;39.90;;;34.10;;
55465;SDS011;41329;41.594;23.810;2022-12-18T07:01:40;20.27;;;18.87;;
55465;SDS011;41329;41.594;23.810;2022-12-18T07:04:06;20.03;;;18.17;;
55465;SDS011;41329;41.594;23.810;2022-12-18T07:06:31;28.07;;;24.83;;
55465;SDS011;41329;41.594;23.810;2022-12-18T07:08:57;26.07;;;23.60;;
55465;SDS011;41329;41.594;23.810;2022-12-18T07:11:23;24.07;;;22.27;;
55465;SDS011;41329;41.594;23.810;2022-12-18T07:13:49;23.03;;;21.13;;
55465;SDS011;41329;41.594;23.810;2022-12-18T07:16:15;22.10;;;20.07;;
55465;SDS011;41329;41.594;23.810;2022-12-18T07:18:43;25.90;;;22.97;;
55465;SDS011;41329;41.594;23.810;2022-12-18T07:21:09;28.33;;;25.43;;
55465;SDS011;41329;41.594;23.810;2022-12-18T07:23:40;27.60;;;23.20;;
55465;SDS011;41329;41.594;23.810;2022-12-18T07:26:06;28.40;;;25.67;;
55465;SDS011;41329;41.594;23.810;2022-12-18T07:28:34;38.73;;;34.67;;
55465;SDS011;41329;41.594;23.810;2022-12-18T07:31:04;41.73;;;35.13;;
55465;SDS011;41329;41.594;23.810;2022-12-18T07:35:56;51.37;;;43.73;;
55465;SDS011;41329;41.594;23.810;2022-12-18T07:38:24;40.40;;;36.27;;
55465;SDS011;41329;41.594;23.810;2022-12-18T07:40:49;39.30;;;33.03;;
55465;SDS011;41329;41.594;23.810;2022-12-18T07:43:14;35.50;;;30.83;;
55465;SDS011;41329;41.594;23.810;2022-12-18T07:45:40;67.83;;;44.40;;
55465;SDS011;41329;41.594;23.810;2022-12-18T07:48:06;489.80;;;238.73;;
55465;SDS011;41329;41.594;23.810;2022-12-18T07:50:32;150.67;;;81.27;;
55465;SDS011;41329;41.594;23.810;2022-12-18T07:52:57;216.67;;;120.13;;
55465;SDS011;41329;41.594;23.810;2022-12-18T07:55:23;160.00;;;92.70;;
55465;SDS011;41329;41.594;23.810;2022-12-18T07:57:48;161.20;;;98.27;;
55465;SDS011;41329;41.594;23.810;2022-12-18T08:00:14;141.83;;;86.63;;
55465;SDS011;41329;41.594;23.810;2022-12-18T08:02:40;111.23;;;66.17;;
55465;SDS011;41329;41.594;23.810;2022-12-18T08:05:05;73.80;;;48.00;;
55465;SDS011;41329;41.594;23.810;2022-12-18T08:07:30;50.40;;;39.47;;
55465;SDS011;41329;41.594;23.810;2022-12-18T08:09:56;42.90;;;34.43;;
55465;SDS011;41329;41.594;23.810;2022-12-18T08:12:21;43.07;;;31.57;;
55465;SDS011;41329;41.594;23.810;2022-12-18T08:14:47;39.83;;;32.80;;
55465;SDS011;41329;41.594;23.810;2022-12-18T08:17:12;34.53;;;28.17;;
55465;SDS011;41329;41.594;23.810;2022-12-18T08:19:37;29.13;;;26.23;;
55465;SDS011;41329;41.594;23.810;2022-12-18T08:22:03;35.90;;;30.57;;
55465;SDS011;41329;41.594;23.810;2022-12-18T08:24:28;48.73;;;36.93;;
55465;SDS011;41329;41.594;23.810;2022-12-18T08:26:54;34.90;;;30.53;;
55465;SDS011;41329;41.594;23.810;2022-12-18T08:29:19;31.07;;;27.97;;
55465;SDS011;41329;41.594;23.810;2022-12-18T08:31:45;32.13;;;29.07;;
55465;SDS011;41329;41.594;23.810;2022-12-18T08:34:10;37.57;;;31.27;;
55465;SDS011;41329;41.594;23.810;2022-12-18T08:36:36;46.03;;;34.53;;
55465;SDS011;41329;41.594;23.810;2022-12-18T08:39:01;33.20;;;28.23;;
55465;SDS011;41329;41.594;23.810;2022-12-18T08:41:27;26.83;;;24.37;;
55465;SDS011;41329;41.594;23.810;2022-12-18T08:43:52;29.87;;;26.57;;
55465;SDS011;41329;41.594;23.810;2022-12-18T08:46:37;28.30;;;25.23;;
55465;SDS011;41329;41.594;23.810;2022-12-18T08:49:04;23.80;;;21.40;;
55465;SDS011;41329;41.594;23.810;2022-12-18T08:51:32;30.53;;;25.30;;
55465;SDS011;41329;41.594;23.810;2022-12-18T08:53:58;23.67;;;21.17;;
55465;SDS011;41329;41.594;23.810;2022-12-18T08:56:23;19.07;;;17.37;;
55465;SDS011;41329;41.594;23.810;2022-12-18T08:58:53;17.60;;;16.17;;
55465;SDS011;41329;41.594;23.810;2022-12-18T09:01:19;19.05;;;17.08;;
55465;SDS011;41329;41.594;23.810;2022-12-18T09:03:45;19.40;;;17.73;;
55465;SDS011;41329;41.594;23.810;2022-12-18T09:06:16;20.73;;;18.97;;
55465;SDS011;41329;41.594;23.810;2022-12-18T09:08:43;31.33;;;27.85;;
55465;SDS011;41329;41.594;23.810;2022-12-18T09:11:13;40.63;;;30.53;;
55465;SDS011;41329;41.594;23.810;2022-12-18T09:13:46;19.40;;;17.83;;
55465;SDS011;41329;41.594;23.810;2022-12-18T09:16:12;24.80;;;22.40;;
55465;SDS011;41329;41.594;23.810;2022-12-18T09:18:37;52.87;;;37.80;;
55465;SDS011;41329;41.594;23.810;2022-12-18T09:21:10;26.97;;;23.27;;
55465;SDS011;41329;41.594;23.810;2022-12-18T09:23:37;22.13;;;19.77;;
55465;SDS011;41329;41.594;23.810;2022-12-18T09:26:03;15.27;;;14.07;;
55465;SDS011;41329;41.594;23.810;2022-12-18T09:28:29;29.60;;;25.50;;
55465;SDS011;41329;41.594;23.810;2022-12-18T09:30:54;25.87;;;23.17;;
55465;SDS011;41329;41.594;23.810;2022-12-18T09:33:20;67.27;;;38.17;;
55465;SDS011;41329;41.594;23.810;2022-12-18T09:35:45;25.47;;;20.07;;
55465;SDS011;41329;41.594;23.810;2022-12-18T09:38:12;19.50;;;17.67;;
55465;SDS011;41329;41.594;23.810;2022-12-18T09:40:41;19.47;;;17.93;;
55465;SDS011;41329;41.594;23.810;2022-12-18T09:43:17;15.07;;;13.63;;
55465;SDS011;41329;41.594;23.810;2022-12-18T09:45:49;22.13;;;18.90;;
55465;SDS011;41329;41.594;23.810;2022-12-18T09:48:21;18.73;;;16.73;;
55465;SDS011;41329;41.594;23.810;2022-12-18T09:50:51;20.00;;;17.93;;
55465;SDS011;41329;41.594;23.810;2022-12-18T09:53:24;18.17;;;16.73;;
55465;SDS011;41329;41.594;23.810;2022-12-18T09:55:53;18.30;;;16.53;;
55465;SDS011;41329;41.594;23.810;2022-12-18T09:58:24;19.77;;;17.77;;
55465;SDS011;41329;41.594;23.810;2022-12-18T10:00:55;40.60;;;27.87;;
55465;SDS011;41329;41.594;23.810;2022-12-18T10:03:21;21.17;;;18.67;;
55465;SDS011;41329;41.594;23.810;2022-12-18T10:14:13;110.10;;;61.60;;
55465;SDS011;41329;41.594;23.810;2022-12-18T10:19:46;23.13;;;19.65;;
55465;SDS011;41329;41.594;23.810;2022-12-18T10:25:05;32.47;;;24.90;;
55465;SDS011;41329;41.594;23.810;2022-12-18T10:27:31;42.93;;;29.37;;
55465;SDS011;41329;41.594;23.810;2022-12-18T10:29:57;51.47;;;36.70;;
55465;SDS011;41329;41.594;23.810;2022-12-18T10:32:24;22.13;;;19.90;;
55465;SDS011;41329;41.594;23.810;2022-12-18T10:34:53;58.03;;;39.87;;
55465;SDS011;41329;41.594;23.810;2022-12-18T10:37:22;22.58;;;20.15;;
55465;SDS011;41329;41.594;23.810;2022-12-18T10:40:06;38.95;;;28.13;;
55465;SDS011;41329;41.594;23.810;2022-12-18T10:42:37;35.58;;;27.42;;
55465;SDS011;41329;41.594;23.810;2022-12-18T10:45:08;17.38;;;14.85;;
55465;SDS011;41329;41.594;23.810;2022-12-18T10:47:49;239.45;;;133.40;;
55465;SDS011;41329;41.594;23.810;2022-12-18T10:50:19;17.63;;;15.20;;
55465;SDS011;41329;41.594;23.810;2022-12-18T10:52:55;72.70;;;39.37;;
55465;SDS011;41329;41.594;23.810;2022-12-18T10:55:22;67.20;;;36.17;;
55465;SDS011;41329;41.594;23.810;2022-12-18T10:57:47;255.57;;;140.55;;
55465;SDS011;41329;41.594;23.810;2022-12-18T11:00:21;142.67;;;77.40;;
55465;SDS011;41329;41.594;23.810;2022-12-18T11:02:47;40.33;;;27.70;;
55465;SDS011;41329;41.594;23.810;2022-12-18T11:05:31;31.10;;;24.83;;
55465;SDS011;41329;41.594;23.810;2022-12-18T11:07:59;19.10;;;17.47;;
55465;SDS011;41329;41.594;23.810;2022-12-18T11:10:36;16.52;;;15.13;;
55465;SDS011;41329;41.594;23.810;2022-12-18T11:13:21;14.17;;;13.00;;
55465;SDS011;41329;41.594;23.810;2022-12-18T11:15:50;12.05;;;11.20;;
55465;SDS011;41329;41.594;23.810;2022-12-18T11:18:34;16.80;;;15.17;;
55465;SDS011;41329;41.594;23.810;2022-12-18T11:21:07;17.20;;;15.80;;
55465;SDS011;41329;41.594;23.810;2022-12-18T11:23:36;17.80;;;16.60;;
55465;SDS011;41329;41.594;23.810;2022-12-18T11:26:09;12.20;;;11.40;;
55465;SDS011;41329;41.594;23.810;2022-12-18T11:28:45;12.07;;;11.20;;
55465;SDS011;41329;41.594;23.810;2022-12-18T11:36:46;12.80;;;11.90;;
55465;SDS011;41329;41.594;23.810;2022-12-18T11:39:59;16.40;;;14.87;;
55465;SDS011;41329;41.594;23.810;2022-12-18T11:42:11;12.88;;;11.98;;
55465;SDS011;41329;41.594;23.810;2022-12-18T11:49:55;15.43;;;12.50;;
55465;SDS011;41329;41.594;23.810;2022-12-18T11:52:34;12.05;;;10.90;;
55465;SDS011;41329;41.594;23.810;2022-12-18T11:55:13;10.98;;;10.27;;
55465;SDS011;41329;41.594;23.810;2022-12-18T12:00:35;16.50;;;15.18;;
55465;SDS011;41329;41.594;23.810;2022-12-18T12:17:42;17.75;;;16.20;;
55465;SDS011;41329;41.594;23.810;2022-12-18T12:25:31;58.05;;;32.63;;
55465;SDS011;41329;41.594;23.810;2022-12-18T12:40:59;17.70;;;16.25;;
55465;SDS011;41329;41.594;23.810;2022-12-18T12:43:31;131.80;;;78.72;;
55465;SDS011;41329;41.594;23.810;2022-12-18T12:46:03;88.97;;;53.95;;
55465;SDS011;41329;41.594;23.810;2022-12-18T12:51:20;70.10;;;47.33;;
55465;SDS011;41329;41.594;23.810;2022-12-18T12:53:46;49.22;;;35.20;;
55465;SDS011;41329;41.594;23.810;2022-12-18T12:56:14;25.25;;;20.88;;
55465;SDS011;41329;41.594;23.810;2022-12-18T12:58:44;25.10;;;20.65;;
55465;SDS011;41329;41.594;23.810;2022-12-18T13:01:34;15.60;;;13.60;;
55465;SDS011;41329;41.594;23.810;2022-12-18T13:04:27;31.67;;;23.02;;
55465;SDS011;41329;41.594;23.810;2022-12-18T13:12:52;17.65;;;15.98;;
55465;SDS011;41329;41.594;23.810;2022-12-18T13:15:29;28.15;;;22.63;;
55465;SDS011;41329;41.594;23.810;2022-12-18T13:18:21;32.75;;;21.25;;
55465;SDS011;41329;41.594;23.810;2022-12-18T13:25:48;63.42;;;36.20;;
55465;SDS011;41329;41.594;23.810;2022-12-18T13:28:15;34.40;;;25.30;;
55465;SDS011;41329;41.594;23.810;2022-12-18T13:30:46;41.15;;;27.10;;
55465;SDS011;41329;41.594;23.810;2022-12-18T13:38:23;53.35;;;31.15;;
55465;SDS011;41329;41.594;23.810;2022-12-18T13:41:00;97.65;;;50.72;;
55465;SDS011;41329;41.594;23.810;2022-12-18T13:43:28;102.60;;;52.25;;
55465;SDS011;41329;41.594;23.810;2022-12-18T13:49:02;195.90;;;83.43;;
55465;SDS011;41329;41.594;23.810;2022-12-18T13:51:32;82.95;;;38.35;;
55465;SDS011;41329;41.594;23.810;2022-12-18T13:54:06;62.95;;;32.58;;
55465;SDS011;41329;41.594;23.810;2022-12-18T13:56:59;21.85;;;18.45;;
55465;SDS011;41329;41.594;23.810;2022-12-18T13:59:25;50.97;;;33.45;;
55465;SDS011;41329;41.594;23.810;2022-12-18T14:04:36;17.92;;;16.30;;
55465;SDS011;41329;41.594;23.810;2022-12-18T14:07:05;45.23;;;28.17;;
55465;SDS011;41329;41.594;23.810;2022-12-18T14:09:42;95.70;;;40.87;;
55465;SDS011;41329;41.594;23.810;2022-12-18T14:12:30;68.88;;;34.15;;
55465;SDS011;41329;41.594;23.810;2022-12-18T14:17:50;73.93;;;42.43;;
55465;SDS011;41329;41.594;23.810;2022-12-18T14:20:22;65.30;;;36.85;;
55465;SDS011;41329;41.594;23.810;2022-12-18T14:22:49;74.65;;;42.38;;
55465;SDS011;41329;41.594;23.810;2022-12-18T14:25:23;43.92;;;29.23;;
55465;SDS011;41329;41.594;23.810;2022-12-18T14:30:44;27.00;;;21.43;;
55465;SDS011;41329;41.594;23.810;2022-12-18T14:35:38;35.15;;;24.45;;
55465;SDS011;41329;41.594;23.810;2022-12-18T14:38:18;40.58;;;26.48;;
55465;SDS011;41329;41.594;23.810;2022-12-18T14:40:47;43.28;;;28.80;;
55465;SDS011;41329;41.594;23.810;2022-12-18T14:43:17;47.90;;;31.63;;
55465;SDS011;41329;41.594;23.810;2022-12-18T14:45:45;37.07;;;25.57;;
55465;SDS011;41329;41.594;23.810;2022-12-18T14:50:36;30.63;;;24.73;;
55465;SDS011;41329;41.594;23.810;2022-12-18T14:53:02;30.30;;;23.20;;
55465;SDS011;41329;41.594;23.810;2022-12-18T14:55:28;25.70;;;21.20;;
55465;SDS011;41329;41.594;23.810;2022-12-18T14:57:54;22.50;;;19.70;;
55465;SDS011;41329;41.594;23.810;2022-12-18T15:00:22;22.23;;;19.43;;
55465;SDS011;41329;41.594;23.810;2022-12-18T15:02:55;23.17;;;20.57;;
55465;SDS011;41329;41.594;23.810;2022-12-18T15:07:53;28.50;;;25.13;;
55465;SDS011;41329;41.594;23.810;2022-12-18T15:10:20;33.00;;;27.87;;
55465;SDS011;41329;41.594;23.810;2022-12-18T15:20:42;47.80;;;33.57;;
55465;SDS011;41329;41.594;23.810;2022-12-18T15:23:28;46.87;;;31.33;;
55465;SDS011;41329;41.594;23.810;2022-12-18T15:26:00;42.43;;;29.03;;
55465;SDS011;41329;41.594;23.810;2022-12-18T15:28:35;55.17;;;31.93;;
55465;SDS011;41329;41.594;23.810;2022-12-18T15:31:02;56.70;;;37.70;;
55465;SDS011;41329;41.594;23.810;2022-12-18T15:33:33;58.63;;;38.13;;
55465;SDS011;41329;41.594;23.810;2022-12-18T15:36:01;63.70;;;38.30;;
55465;SDS011;41329;41.594;23.810;2022-12-18T15:38:29;53.40;;;35.83;;
55465;SDS011;41329;41.594;23.810;2022-12-18T15:40:54;59.53;;;38.63;;
55465;SDS011;41329;41.594;23.810;2022-12-18T15:43:23;50.43;;;35.93;;
55465;SDS011;41329;41.594;23.810;2022-12-18T15:46:02;38.43;;;30.07;;
55465;SDS011;41329;41.594;23.810;2022-12-18T15:48:35;46.00;;;30.13;;
55465;SDS011;41329;41.594;23.810;2022-12-18T15:51:28;51.23;;;37.80;;
55465;SDS011;41329;41.594;23.810;2022-12-18T15:54:04;38.57;;;31.27;;
55465;SDS011;41329;41.594;23.810;2022-12-18T15:56:31;41.93;;;27.97;;
55465;SDS011;41329;41.594;23.810;2022-12-18T15:59:16;36.67;;;28.27;;
55465;SDS011;41329;41.594;23.810;2022-12-18T16:01:48;74.33;;;47.43;;
55465;SDS011;41329;41.594;23.810;2022-12-18T16:04:16;76.73;;;52.07;;
55465;SDS011;41329;41.594;23.810;2022-12-18T16:06:45;81.80;;;52.95;;
55465;SDS011;41329;41.594;23.810;2022-12-18T16:09:11;73.03;;;48.27;;
55465;SDS011;41329;41.594;23.810;2022-12-18T16:11:36;63.47;;;42.90;;
55465;SDS011;41329;41.594;23.810;2022-12-18T16:14:08;48.90;;;35.30;;
55465;SDS011;41329;41.594;23.810;2022-12-18T16:16:39;108.23;;;70.33;;
55465;SDS011;41329;41.594;23.810;2022-12-18T16:19:04;145.97;;;90.40;;
55465;SDS011;41329;41.594;23.810;2022-12-18T16:21:30;89.03;;;56.57;;
55465;SDS011;41329;41.594;23.810;2022-12-18T16:23:55;69.53;;;44.10;;
55465;SDS011;41329;41.594;23.810;2022-12-18T16:26:21;51.80;;;36.17;;
55465;SDS011;41329;41.594;23.810;2022-12-18T16:28:46;73.90;;;46.40;;
55465;SDS011;41329;41.594;23.810;2022-12-18T16:31:12;59.03;;;39.83;;
55465;SDS011;41329;41.594;23.810;2022-12-18T16:33:37;52.33;;;35.57;;
55465;SDS011;41329;41.594;23.810;2022-12-18T16:36:02;56.93;;;37.20;;
55465;SDS011;41329;41.594;23.810;2022-12-18T16:38:28;54.00;;;39.77;;